No particular awareness of the weather is required.    There are no Weather-warnings


Meteo18 Weather Cam more information Meteo18 Weather Cam


Thunder radar more information blitzortung!


Rain radar more information rain snow radar


Visit our other weather sites:

Template documentation
and downloads

And another site



Weather Underground History page Text

Daily Summary for January 20, 2017 Units:  Metric    English   Both
« Previous Day
Next Day »
Daily Weekly Monthly Yearly Custom
  High: Low: Average:
Temperature: 2.0 °C -8.1 °C -4 °C
Dew Point: -2.5 °C -9.2 °C -5.9 °C
Humidity: 93 % 71 % 86 %
Wind Speed: 6.4 km/h 0.0 km/h 0.9 km/h
Wind Gust: 11.3 km/h - -
Wind:- - East
Pressure: 1030.7 hPa 1028.0 hPa -
Precipitation: 0.0 mm    
Historical Graphs
 
 
Tabular Data for January 20, 2017
Time Temperature Dew Point Pressure Wind Wind Speed Wind Gust Humidity Rainfall Rate (Hourly)
00:02 -5.4 °C -7.1 °C 1030.7 hPa Calm   1.6 km/h 88 % 0.0 mm
00:07 -5.4 °C -7.1 °C 1030.7 hPa Calm     88 % 0.0 mm
00:12 -5.4 °C -7.1 °C 1030.7 hPa Calm   1.6 km/h 88 % 0.0 mm
00:17 -5.5 °C -7.2 °C 1030.7 hPa Calm   1.6 km/h 88 % 0.0 mm
00:22 -5.5 °C -7.0 °C 1030.4 hPa Calm   1.6 km/h 89 % 0.0 mm
00:27 -5.6 °C -7.1 °C 1030.4 hPa Calm   1.6 km/h 89 % 0.0 mm
00:32 -5.6 °C -7.1 °C 1030.4 hPa Calm   1.6 km/h 89 % 0.0 mm
00:37 -5.6 °C -7.1 °C 1030.4 hPa Calm   1.6 km/h 89 % 0.0 mm
00:42 -5.6 °C -7.3 °C 1030.4 hPa Calm   1.6 km/h 88 % 0.0 mm
00:47 -5.6 °C -7.1 °C 1030.4 hPa Calm   1.6 km/h 89 % 0.0 mm
00:52 -5.7 °C -7.2 °C 1030.4 hPa Calm   1.6 km/h 89 % 0.0 mm
00:57 -5.7 °C -7.2 °C 1030.4 hPa Calm   1.6 km/h 89 % 0.0 mm
01:02 -5.7 °C -7.2 °C 1030.4 hPa Calm   1.6 km/h 89 % 0.0 mm
01:07 -5.7 °C -7.4 °C 1030.4 hPa Calm   1.6 km/h 88 % 0.0 mm
01:12 -5.8 °C -7.3 °C 1030.0 hPa WNW 1.6 km/h 1.6 km/h 89 % 0.0 mm
01:17 -5.7 °C -7.1 °C 1030.0 hPa Calm   1.6 km/h 90 % 0.0 mm
01:22 -5.7 °C -7.2 °C 1030.0 hPa NNW 1.6 km/h 1.6 km/h 89 % 0.0 mm
01:27 -5.7 °C -7.2 °C 1030.0 hPa Calm   1.6 km/h 89 % 0.0 mm
01:32 -5.8 °C -7.3 °C 1030.0 hPa Calm   1.6 km/h 89 % 0.0 mm
01:37 -5.8 °C -7.3 °C 1030.0 hPa Calm   1.6 km/h 89 % 0.0 mm
01:42 -5.8 °C -7.3 °C 1030.0 hPa Calm   1.6 km/h 89 % 0.0 mm
01:47 -5.7 °C -7.2 °C 1030.0 hPa Calm   1.6 km/h 89 % 0.0 mm
01:52 -5.7 °C -7.2 °C 1030.0 hPa NNW 1.6 km/h 1.6 km/h 89 % 0.0 mm
01:57 -5.7 °C -7.2 °C 1030.0 hPa Calm   1.6 km/h 89 % 0.0 mm
02:02 -5.8 °C -7.3 °C 1030.0 hPa Calm   1.6 km/h 89 % 0.0 mm
02:07 -5.8 °C -7.3 °C 1030.0 hPa Calm   1.6 km/h 89 % 0.0 mm
02:12 -5.9 °C -7.4 °C 1030.0 hPa North 1.6 km/h 3.2 km/h 89 % 0.0 mm
02:17 -5.9 °C -7.4 °C 1029.7 hPa Calm   3.2 km/h 89 % 0.0 mm
02:22 -5.9 °C -7.4 °C 1029.7 hPa NNW 1.6 km/h 3.2 km/h 89 % 0.0 mm
02:27 -5.9 °C -7.4 °C 1029.7 hPa North 1.6 km/h 3.2 km/h 89 % 0.0 mm
02:32 -5.9 °C -7.4 °C 1029.7 hPa NNW 1.6 km/h 3.2 km/h 89 % 0.0 mm
02:37 -5.9 °C -7.4 °C 1029.7 hPa North 1.6 km/h 3.2 km/h 89 % 0.0 mm
02:42 -6.1 °C -7.6 °C 1030.0 hPa Calm   3.2 km/h 89 % 0.0 mm
02:52 -6.4 °C -7.9 °C 1029.7 hPa Calm   3.2 km/h 89 % 0.0 mm
02:57 -6.6 °C -8.1 °C 1030.0 hPa Calm   1.6 km/h 89 % 0.0 mm
03:02 -6.6 °C -8.0 °C 1030.0 hPa Calm   1.6 km/h 90 % 0.0 mm
03:07 -6.7 °C -8.1 °C 1030.0 hPa Calm     90 % 0.0 mm
03:12 -6.7 °C -8.1 °C 1030.0 hPa Calm     90 % 0.0 mm
03:17 -6.8 °C -8.0 °C 1030.0 hPa Calm     91 % 0.0 mm
03:22 -6.8 °C -8.0 °C 1030.0 hPa Calm     91 % 0.0 mm
03:27 -6.8 °C -8.0 °C 1030.0 hPa Calm     91 % 0.0 mm
03:32 -6.8 °C -8.0 °C 1029.7 hPa Calm     91 % 0.0 mm
03:37 -6.9 °C -8.1 °C 1029.7 hPa Calm     91 % 0.0 mm
03:42 -6.9 °C -8.1 °C 1029.7 hPa Calm     91 % 0.0 mm
03:47 -6.9 °C -8.1 °C 1029.7 hPa Calm     91 % 0.0 mm
03:52 -7.0 °C -8.2 °C 1029.7 hPa Calm     91 % 0.0 mm
03:57 -7.1 °C -8.3 °C 1029.7 hPa Calm   1.6 km/h 91 % 0.0 mm
04:02 -7.1 °C -8.3 °C 1029.7 hPa Calm   1.6 km/h 91 % 0.0 mm
04:12 -6.9 °C -8.1 °C 1029.3 hPa Calm   3.2 km/h 91 % 0.0 mm
04:17 -6.8 °C -8.0 °C 1029.3 hPa Calm   3.2 km/h 91 % 0.0 mm
04:22 -6.9 °C -8.1 °C 1029.3 hPa Calm   3.2 km/h 91 % 0.0 mm
04:27 -7.1 °C -8.5 °C 1029.3 hPa Calm   1.6 km/h 90 % 0.0 mm
04:32 -7.2 °C -8.4 °C 1029.3 hPa Calm   1.6 km/h 91 % 0.0 mm
04:37 -7.1 °C -8.3 °C 1029.3 hPa Calm   1.6 km/h 91 % 0.0 mm
04:42 -7.1 °C -8.3 °C 1029.3 hPa Calm   1.6 km/h 91 % 0.0 mm
04:47 -7.0 °C -8.2 °C 1029.3 hPa Calm   1.6 km/h 91 % 0.0 mm
04:52 -7.2 °C -8.4 °C 1029.3 hPa Calm   1.6 km/h 91 % 0.0 mm
04:57 -7.3 °C -8.5 °C 1029.3 hPa Calm   1.6 km/h 91 % 0.0 mm
05:02 -7.3 °C -8.5 °C 1029.3 hPa Calm   1.6 km/h 91 % 0.0 mm
05:07 -7.2 °C -8.3 °C 1029.3 hPa Calm   1.6 km/h 92 % 0.0 mm
05:12 -7.2 °C -8.4 °C 1029.3 hPa Calm   1.6 km/h 91 % 0.0 mm
05:17 -7.3 °C -8.5 °C 1029.3 hPa Calm   1.6 km/h 91 % 0.0 mm
05:22 -7.3 °C -8.4 °C 1029.3 hPa Calm   1.6 km/h 92 % 0.0 mm
05:32 -7.3 °C -8.4 °C 1029.3 hPa Calm     92 % 0.0 mm
05:37 -7.3 °C -8.5 °C 1029.3 hPa Calm     91 % 0.0 mm
05:42 -7.3 °C -8.5 °C 1029.3 hPa Calm     91 % 0.0 mm
05:47 -7.3 °C -8.4 °C 1029.3 hPa Calm     92 % 0.0 mm
05:52 -7.1 °C -8.2 °C 1029.3 hPa Calm     92 % 0.0 mm
05:57 -7.2 °C -8.4 °C 1029.3 hPa Calm   1.6 km/h 91 % 0.0 mm
06:02 -7.3 °C -8.5 °C 1029.3 hPa Calm   1.6 km/h 91 % 0.0 mm
06:12 -7.4 °C -8.5 °C 1029.3 hPa Calm   1.6 km/h 92 % 0.0 mm
06:17 -7.7 °C -8.9 °C 1029.0 hPa Calm   1.6 km/h 91 % 0.0 mm
06:22 -7.8 °C -9.0 °C 1029.3 hPa Calm   1.6 km/h 91 % 0.0 mm
06:27 -7.8 °C -8.9 °C 1029.3 hPa NE 1.6 km/h 1.6 km/h 92 % 0.0 mm
06:32 -7.6 °C -8.7 °C 1029.3 hPa Calm   1.6 km/h 92 % 0.0 mm
06:42 -7.7 °C -8.8 °C 1029.3 hPa NNE 1.6 km/h 3.2 km/h 92 % 0.0 mm
06:47 -7.7 °C -8.8 °C 1029.3 hPa NE 1.6 km/h 4.8 km/h 92 % 0.0 mm
06:52 -7.5 °C -8.6 °C 1029.3 hPa Calm   4.8 km/h 92 % 0.0 mm
06:57 -7.6 °C -8.7 °C 1029.0 hPa NNE 3.2 km/h 4.8 km/h 92 % 0.0 mm
07:02 -7.5 °C -8.6 °C 1029.3 hPa NNE 3.2 km/h 4.8 km/h 92 % 0.0 mm
07:12 -7.2 °C -8.3 °C 1029.3 hPa NE 3.2 km/h 8.0 km/h 92 % 0.0 mm
07:17 -7.1 °C -8.2 °C 1029.3 hPa NE 4.8 km/h 8.0 km/h 92 % 0.0 mm
07:22 -7.0 °C -8.2 °C 1029.3 hPa Calm   8.0 km/h 91 % 0.0 mm
07:32 -7.1 °C -8.3 °C 1029.3 hPa NE 1.6 km/h 8.0 km/h 91 % 0.0 mm
07:37 -7.1 °C -8.3 °C 1029.3 hPa NNE 3.2 km/h 6.4 km/h 91 % 0.0 mm
07:42 -7.2 °C -8.4 °C 1029.3 hPa Calm   6.4 km/h 91 % 0.0 mm
07:47 -7.4 °C -8.6 °C 1029.3 hPa Calm   6.4 km/h 91 % 0.0 mm
07:52 -7.4 °C -8.6 °C 1029.3 hPa Calm   6.4 km/h 91 % 0.0 mm
07:57 -7.5 °C -8.7 °C 1029.3 hPa Calm   3.2 km/h 91 % 0.0 mm
08:02 -7.6 °C -8.8 °C 1029.3 hPa Calm   3.2 km/h 91 % 0.0 mm
08:07 -7.7 °C -8.9 °C 1029.3 hPa NNE 1.6 km/h 1.6 km/h 91 % 0.0 mm
08:12 -7.7 °C -8.9 °C 1029.3 hPa NE 1.6 km/h 1.6 km/h 91 % 0.0 mm
08:17 -7.7 °C -8.8 °C 1029.3 hPa Calm   3.2 km/h 92 % 0.0 mm
08:22 -7.7 °C -8.8 °C 1029.3 hPa Calm   3.2 km/h 92 % 0.0 mm
08:32 -7.7 °C -8.8 °C 1029.3 hPa Calm   3.2 km/h 92 % 0.0 mm
08:37 -7.7 °C -8.9 °C 1029.3 hPa Calm   1.6 km/h 91 % 0.0 mm
08:42 -7.8 °C -8.9 °C 1029.3 hPa Calm   1.6 km/h 92 % 0.0 mm
08:47 -7.9 °C -9.1 °C 1029.3 hPa Calm   1.6 km/h 91 % 0.0 mm
08:52 -8.1 °C -9.2 °C 1029.3 hPa Calm   1.6 km/h 92 % 0.0 mm
08:57 -8.0 °C -9.1 °C 1029.3 hPa Calm     92 % 0.0 mm
09:07 -7.8 °C -8.9 °C 1029.3 hPa Calm     92 % 0.0 mm
09:12 -7.8 °C -8.9 °C 1029.3 hPa Calm     92 % 0.0 mm
09:17 -7.7 °C -8.8 °C 1029.3 hPa Calm     92 % 0.0 mm
09:22 -7.6 °C -8.7 °C 1029.7 hPa Calm     92 % 0.0 mm
09:27 -7.4 °C -8.5 °C 1029.7 hPa Calm     92 % 0.0 mm
09:32 -7.3 °C -8.4 °C 1029.7 hPa Calm     92 % 0.0 mm
09:37 -7.1 °C -8.2 °C 1029.7 hPa Calm     92 % 0.0 mm
09:42 -6.9 °C -8.1 °C 1029.7 hPa Calm     91 % 0.0 mm
09:47 -6.7 °C -7.9 °C 1029.7 hPa Calm   1.6 km/h 91 % 0.0 mm
09:52 -6.6 °C -7.8 °C 1029.7 hPa Calm   1.6 km/h 91 % 0.0 mm
09:57 -6.5 °C -7.7 °C 1029.7 hPa NE 1.6 km/h 1.6 km/h 91 % 0.0 mm
10:02 -6.4 °C -7.8 °C 1029.7 hPa Calm   1.6 km/h 90 % 0.0 mm
10:07 -6.2 °C -7.6 °C 1029.7 hPa NNW 1.6 km/h 3.2 km/h 90 % 0.0 mm
10:12 -6.1 °C -7.5 °C 1029.7 hPa Calm   3.2 km/h 90 % 0.0 mm
10:17 -5.9 °C -7.4 °C 1029.7 hPa NNE 1.6 km/h 3.2 km/h 89 % 0.0 mm
10:22 -5.7 °C -7.1 °C 1029.7 hPa NE 1.6 km/h 3.2 km/h 90 % 0.0 mm
10:27 -5.6 °C -7.3 °C 1029.3 hPa Calm   3.2 km/h 88 % 0.0 mm
10:32 -5.4 °C -7.1 °C 1029.7 hPa NE 1.6 km/h 3.2 km/h 88 % 0.0 mm
10:37 -5.3 °C -7.0 °C 1029.7 hPa Calm   4.8 km/h 88 % 0.0 mm
10:42 -5.2 °C -7.0 °C 1029.7 hPa Calm   4.8 km/h 87 % 0.0 mm
10:47 -5.1 °C -6.8 °C 1029.7 hPa Calm   3.2 km/h 88 % 0.0 mm
10:52 -4.9 °C -6.6 °C 1029.7 hPa Calm   3.2 km/h 88 % 0.0 mm
10:57 -4.7 °C -6.5 °C 1029.7 hPa SE 1.6 km/h 3.2 km/h 87 % 0.0 mm
11:02 -4.4 °C -6.2 °C 1029.7 hPa Calm   3.2 km/h 87 % 0.0 mm
11:07 -4.3 °C -6.1 °C 1029.7 hPa Calm   3.2 km/h 87 % 0.0 mm
11:12 -4.1 °C -6.1 °C 1029.7 hPa Calm   3.2 km/h 86 % 0.0 mm
11:17 -3.8 °C -5.8 °C 1029.7 hPa Calm   3.2 km/h 86 % 0.0 mm
11:22 -3.5 °C -5.8 °C 1029.7 hPa Calm   4.8 km/h 84 % 0.0 mm
11:27 -3.4 °C -5.9 °C 1029.7 hPa ESE 6.4 km/h 6.4 km/h 83 % 0.0 mm
11:32 -3.4 °C -6.0 °C 1029.7 hPa Calm   4.8 km/h 82 % 0.0 mm
11:37 -3.2 °C -5.5 °C 1029.7 hPa SE 1.6 km/h 8.0 km/h 84 % 0.0 mm
11:42 -3.2 °C -5.8 °C 1029.7 hPa ESE 4.8 km/h 8.0 km/h 82 % 0.0 mm
11:47 -3.2 °C -5.7 °C 1029.3 hPa ESE 1.6 km/h 6.4 km/h 83 % 0.0 mm
11:52 -3.0 °C -5.5 °C 1029.3 hPa Calm   6.4 km/h 83 % 0.0 mm
11:57 -2.9 °C -5.4 °C 1029.3 hPa SE 1.6 km/h 6.4 km/h 83 % 0.0 mm
12:02 -2.9 °C -5.4 °C 1029.3 hPa Calm   6.4 km/h 83 % 0.0 mm
12:07 -2.7 °C -5.2 °C 1029.3 hPa Calm   8.0 km/h 83 % 0.0 mm
12:12 -2.5 °C -4.8 °C 1029.3 hPa Calm   6.4 km/h 84 % 0.0 mm
12:17 -2.3 °C -4.8 °C 1029.0 hPa East 4.8 km/h 6.4 km/h 83 % 0.0 mm
12:22 -2.5 °C -5.1 °C 1029.0 hPa South 3.2 km/h 4.8 km/h 82 % 0.0 mm
12:27 -2.3 °C -4.8 °C 1029.0 hPa East 1.6 km/h 4.8 km/h 83 % 0.0 mm
12:32 -2.2 °C -4.9 °C 1029.0 hPa SE 1.6 km/h 6.4 km/h 82 % 0.0 mm
12:37 -2.1 °C -4.6 °C 1029.0 hPa Calm   6.4 km/h 83 % 0.0 mm
12:42 -1.9 °C -4.6 °C 1029.0 hPa Calm   6.4 km/h 82 % 0.0 mm
12:47 -1.9 °C -4.7 °C 1028.7 hPa ENE 1.6 km/h 4.8 km/h 81 % 0.0 mm
12:52 -1.6 °C -4.3 °C 1029.0 hPa ESE 1.6 km/h 4.8 km/h 82 % 0.0 mm
12:57 -1.5 °C -4.5 °C 1028.7 hPa Calm   4.8 km/h 80 % 0.0 mm
13:02 -1.6 °C -4.3 °C 1028.7 hPa Calm   4.8 km/h 82 % 0.0 mm
13:12 -1.3 °C -4.3 °C 1028.7 hPa NE 3.2 km/h 4.8 km/h 80 % 0.0 mm
13:17 -1.1 °C -3.9 °C 1028.7 hPa East 4.8 km/h 4.8 km/h 81 % 0.0 mm
13:22 -1.1 °C -4.3 °C 1028.7 hPa ENE 1.6 km/h 6.4 km/h 79 % 0.0 mm
13:32 -0.8 °C -4.0 °C 1028.7 hPa NE 4.8 km/h 6.4 km/h 79 % 0.0 mm
13:37 -0.7 °C -3.7 °C 1028.7 hPa Calm   8.0 km/h 80 % 0.0 mm
13:42 -0.7 °C -3.9 °C 1028.7 hPa NE 4.8 km/h 8.0 km/h 79 % 0.0 mm
13:47 -0.8 °C -4.0 °C 1028.7 hPa NNE 4.8 km/h 8.0 km/h 79 % 0.0 mm
13:52 -0.6 °C -3.6 °C 1028.7 hPa NE 4.8 km/h 6.4 km/h 80 % 0.0 mm
13:57 -0.6 °C -3.8 °C 1028.7 hPa East 1.6 km/h 8.0 km/h 79 % 0.0 mm
14:02 -0.4 °C -3.8 °C 1028.7 hPa East 3.2 km/h 8.0 km/h 78 % 0.0 mm
14:07 -0.4 °C -3.8 °C 1028.3 hPa NE 6.4 km/h 8.0 km/h 78 % 0.0 mm
14:12 -0.3 °C -3.5 °C 1028.3 hPa NNE 1.6 km/h 8.0 km/h 79 % 0.0 mm
14:17 -0.2 °C -3.6 °C 1028.3 hPa Calm   8.0 km/h 78 % 0.0 mm
14:27 0.1 °C -3.1 °C 1028.3 hPa NNE 1.6 km/h 8.0 km/h 79 % 0.0 mm
14:32 0.2 °C -3.2 °C 1028.3 hPa NNE 1.6 km/h 8.0 km/h 78 % 0.0 mm
14:37 0.3 °C -3.3 °C 1028.3 hPa NE 3.2 km/h 8.0 km/h 77 % 0.0 mm
14:42 0.4 °C -3.2 °C 1028.3 hPa ENE 3.2 km/h 6.4 km/h 77 % 0.0 mm
14:47 0.5 °C -3.2 °C 1028.3 hPa East 1.6 km/h 6.4 km/h 76 % 0.0 mm
14:52 0.6 °C -3.3 °C 1028.3 hPa NE 4.8 km/h 6.4 km/h 75 % 0.0 mm
14:57 0.7 °C -3.0 °C 1028.3 hPa Calm   6.4 km/h 76 % 0.0 mm
15:02 0.8 °C -3.1 °C 1028.3 hPa NE 1.6 km/h 6.4 km/h 75 % 0.0 mm
15:07 0.8 °C -3.1 °C 1028.3 hPa NE 3.2 km/h 6.4 km/h 75 % 0.0 mm
15:12 0.8 °C -3.1 °C 1028.3 hPa NNE 1.6 km/h 6.4 km/h 75 % 0.0 mm
15:17 1.0 °C -2.9 °C 1028.3 hPa ENE 1.6 km/h 6.4 km/h 75 % 0.0 mm
15:22 1.1 °C -2.8 °C 1028.3 hPa ENE 3.2 km/h 6.4 km/h 75 % 0.0 mm
15:27 1.2 °C -2.9 °C 1028.3 hPa Calm   4.8 km/h 74 % 0.0 mm
15:32 1.3 °C -3.0 °C 1028.3 hPa Calm   4.8 km/h 73 % 0.0 mm
15:37 1.4 °C -2.9 °C 1028.3 hPa Calm   4.8 km/h 73 % 0.0 mm
15:42 1.6 °C -2.7 °C 1028.3 hPa Calm   4.8 km/h 73 % 0.0 mm
15:47 1.8 °C -2.5 °C 1028.3 hPa Calm   1.6 km/h 73 % 0.0 mm
15:52 1.9 °C -2.6 °C 1028.3 hPa NE 1.6 km/h 3.2 km/h 72 % 0.0 mm
15:57 1.8 °C -2.5 °C 1028.0 hPa Calm   3.2 km/h 73 % 0.0 mm
16:02 1.6 °C -2.9 °C 1028.0 hPa NNE 1.6 km/h 3.2 km/h 72 % 0.0 mm
16:07 1.6 °C -2.7 °C 1028.0 hPa Calm   3.2 km/h 73 % 0.0 mm
16:12 1.8 °C -2.5 °C 1028.0 hPa Calm   4.8 km/h 73 % 0.0 mm
16:37 2.0 °C -2.5 °C 1028.0 hPa Calm   1.6 km/h 72 % 0.0 mm
16:42 2.0 °C -2.7 °C 1028.0 hPa Calm     71 % 0.0 mm
16:47 1.7 °C -2.6 °C 1028.0 hPa Calm     73 % 0.0 mm
16:52 1.6 °C -2.5 °C 1028.0 hPa Calm     74 % 0.0 mm
16:57 1.4 °C -2.7 °C 1028.3 hPa NE 3.2 km/h 3.2 km/h 74 % 0.0 mm
17:02 1.2 °C -2.9 °C 1028.3 hPa NE 1.6 km/h 3.2 km/h 74 % 0.0 mm
17:07 1.1 °C -2.8 °C 1028.3 hPa NE 1.6 km/h 3.2 km/h 75 % 0.0 mm
17:12 0.9 °C -2.7 °C 1028.3 hPa Calm   3.2 km/h 77 % 0.0 mm
17:17 0.8 °C -2.8 °C 1028.3 hPa NE 1.6 km/h 3.2 km/h 77 % 0.0 mm
17:22 0.6 °C -2.8 °C 1028.3 hPa NE 3.2 km/h 4.8 km/h 78 % 0.0 mm
17:27 0.4 °C -3.0 °C 1028.3 hPa NE 3.2 km/h 4.8 km/h 78 % 0.0 mm
17:32 0.3 °C -2.9 °C 1028.3 hPa NNE 3.2 km/h 4.8 km/h 79 % 0.0 mm
17:42 0.2 °C -3.0 °C 1028.3 hPa NE 3.2 km/h 4.8 km/h 79 % 0.0 mm
17:47 0.1 °C -3.1 °C 1028.3 hPa Calm   4.8 km/h 79 % 0.0 mm
17:52 -0.2 °C -3.1 °C 1028.3 hPa Calm   4.8 km/h 81 % 0.0 mm
17:57 -0.5 °C -3.2 °C 1028.3 hPa Calm   3.2 km/h 82 % 0.0 mm
18:02 -0.7 °C -3.2 °C 1028.3 hPa NNE 4.8 km/h 4.8 km/h 83 % 0.0 mm
18:07 -0.6 °C -3.3 °C 1028.3 hPa NE 4.8 km/h 6.4 km/h 82 % 0.0 mm
18:12 -0.5 °C -3.2 °C 1028.3 hPa NE 4.8 km/h 6.4 km/h 82 % 0.0 mm
18:17 -0.6 °C -3.3 °C 1028.3 hPa NE 4.8 km/h 6.4 km/h 82 % 0.0 mm
18:22 -0.7 °C -3.2 °C 1028.3 hPa NNE 3.2 km/h 8.0 km/h 83 % 0.0 mm
18:27 -0.8 °C -3.2 °C 1028.3 hPa NNE 3.2 km/h 8.0 km/h 84 % 0.0 mm
18:32 -0.8 °C -3.3 °C 1028.3 hPa NNE 1.6 km/h 6.4 km/h 83 % 0.0 mm
18:37 -0.9 °C -3.4 °C 1028.3 hPa NE 1.6 km/h 6.4 km/h 83 % 0.0 mm
18:42 -1.1 °C -3.5 °C 1028.3 hPa NNE 3.2 km/h 11.3 km/h 84 % 0.0 mm
18:47 -1.2 °C -3.6 °C 1028.3 hPa NNE 1.6 km/h 6.4 km/h 84 % 0.0 mm
18:52 -1.3 °C -3.5 °C 1028.3 hPa NNE 3.2 km/h 6.4 km/h 85 % 0.0 mm
18:57 -1.6 °C -3.8 °C 1028.3 hPa North 1.6 km/h 4.8 km/h 85 % 0.0 mm
19:02 -1.7 °C -3.7 °C 1028.3 hPa NNE 3.2 km/h 4.8 km/h 86 % 0.0 mm
19:12 -1.7 °C -3.7 °C 1028.3 hPa NNE 3.2 km/h 6.4 km/h 86 % 0.0 mm
19:17 -1.8 °C -3.8 °C 1028.3 hPa NE 1.6 km/h 6.4 km/h 86 % 0.0 mm
19:22 -1.8 °C -3.8 °C 1028.3 hPa NE 1.6 km/h 6.4 km/h 86 % 0.0 mm
19:27 -1.9 °C -3.9 °C 1028.3 hPa NNE 1.6 km/h 6.4 km/h 86 % 0.0 mm
19:32 -1.8 °C -3.8 °C 1028.3 hPa NE 3.2 km/h 6.4 km/h 86 % 0.0 mm
19:37 -1.8 °C -3.8 °C 1028.3 hPa North 1.6 km/h 6.4 km/h 86 % 0.0 mm
19:42 -1.9 °C -3.9 °C 1028.3 hPa Calm   6.4 km/h 86 % 0.0 mm
19:47 -2.1 °C -4.1 °C 1028.3 hPa NNE 1.6 km/h 4.8 km/h 86 % 0.0 mm
19:52 -2.1 °C -4.1 °C 1028.3 hPa North 3.2 km/h 4.8 km/h 86 % 0.0 mm
19:57 -2.2 °C -4.2 °C 1028.3 hPa NNE 1.6 km/h 4.8 km/h 86 % 0.0 mm
20:02 -2.3 °C -4.3 °C 1028.3 hPa NNW 1.6 km/h 4.8 km/h 86 % 0.0 mm
20:07 -2.3 °C -4.2 °C 1028.3 hPa Calm   3.2 km/h 87 % 0.0 mm
20:12 -2.4 °C -4.3 °C 1028.3 hPa Calm   3.2 km/h 87 % 0.0 mm
20:17 -2.5 °C -4.4 °C 1028.3 hPa Calm   1.6 km/h 87 % 0.0 mm
20:22 -2.8 °C -4.7 °C 1028.3 hPa Calm   1.6 km/h 87 % 0.0 mm
20:32 -2.7 °C -4.4 °C 1028.3 hPa Calm   1.6 km/h 88 % 0.0 mm
20:37 -2.7 °C -4.6 °C 1028.3 hPa Calm   1.6 km/h 87 % 0.0 mm
20:42 -2.7 °C -4.6 °C 1028.3 hPa NNW 1.6 km/h 1.6 km/h 87 % 0.0 mm
20:47 -2.7 °C -4.6 °C 1028.3 hPa NNW 1.6 km/h 1.6 km/h 87 % 0.0 mm
20:52 -2.8 °C -4.7 °C 1028.3 hPa Calm   1.6 km/h 87 % 0.0 mm
20:57 -2.8 °C -4.7 °C 1028.3 hPa Calm   1.6 km/h 87 % 0.0 mm
21:02 -2.9 °C -4.8 °C 1028.3 hPa Calm   1.6 km/h 87 % 0.0 mm
21:07 -2.9 °C -4.6 °C 1028.3 hPa Calm   1.6 km/h 88 % 0.0 mm
21:12 -3.1 °C -4.8 °C 1028.3 hPa Calm     88 % 0.0 mm
21:17 -3.3 °C -5.0 °C 1028.3 hPa Calm     88 % 0.0 mm
21:22 -3.4 °C -5.0 °C 1028.3 hPa Calm     89 % 0.0 mm
21:27 -3.7 °C -5.2 °C 1028.3 hPa Calm     89 % 0.0 mm
21:32 -3.6 °C -4.9 °C 1028.3 hPa Calm     91 % 0.0 mm
21:37 -3.2 °C -4.6 °C 1028.3 hPa Calm     90 % 0.0 mm
21:42 -3.2 °C -4.8 °C 1028.3 hPa Calm     89 % 0.0 mm
21:47 -3.4 °C -5.1 °C 1028.3 hPa Calm     88 % 0.0 mm
21:52 -3.6 °C -5.1 °C 1028.3 hPa Calm     89 % 0.0 mm
21:57 -3.7 °C -5.2 °C 1028.3 hPa Calm     89 % 0.0 mm
22:02 -3.8 °C -5.3 °C 1028.3 hPa Calm     89 % 0.0 mm
22:07 -3.8 °C -5.2 °C 1028.3 hPa Calm     90 % 0.0 mm
22:12 -3.7 °C -5.1 °C 1028.3 hPa Calm   1.6 km/h 90 % 0.0 mm
22:17 -3.7 °C -5.1 °C 1028.3 hPa Calm   1.6 km/h 90 % 0.0 mm
22:22 -3.9 °C -5.4 °C 1028.3 hPa Calm   1.6 km/h 89 % 0.0 mm
22:27 -4.1 °C -5.5 °C 1028.3 hPa Calm   1.6 km/h 90 % 0.0 mm
22:32 -3.9 °C -5.3 °C 1028.0 hPa Calm   1.6 km/h 90 % 0.0 mm
22:37 -3.8 °C -5.2 °C 1028.3 hPa Calm   1.6 km/h 90 % 0.0 mm
22:42 -3.7 °C -5.1 °C 1028.0 hPa NNW 1.6 km/h 1.6 km/h 90 % 0.0 mm
22:47 -3.7 °C -5.1 °C 1028.0 hPa Calm   3.2 km/h 90 % 0.0 mm
22:52 -3.8 °C -5.3 °C 1028.0 hPa NW 1.6 km/h 3.2 km/h 89 % 0.0 mm
23:02 -3.8 °C -5.3 °C 1028.0 hPa Calm   3.2 km/h 89 % 0.0 mm
23:07 -4.3 °C -5.8 °C 1028.0 hPa Calm   1.6 km/h 89 % 0.0 mm
23:12 -4.6 °C -5.8 °C 1028.0 hPa Calm   1.6 km/h 91 % 0.0 mm
23:17 -4.5 °C -5.6 °C 1028.3 hPa Calm   1.6 km/h 92 % 0.0 mm
23:22 -4.6 °C -5.8 °C 1028.3 hPa WNW 1.6 km/h 1.6 km/h 91 % 0.0 mm
23:27 -4.5 °C -5.6 °C 1028.0 hPa WNW 1.6 km/h 1.6 km/h 92 % 0.0 mm
23:32 -4.2 °C -5.2 °C 1028.3 hPa Calm   1.6 km/h 93 % 0.0 mm
23:37 -4.0 °C -5.3 °C 1028.3 hPa Calm   1.6 km/h 91 % 0.0 mm
23:42 -4.7 °C -6.1 °C 1028.3 hPa Calm   1.6 km/h 90 % 0.0 mm
23:47 -4.9 °C -6.0 °C 1028.3 hPa WNW 1.6 km/h   92 % 0.0 mm
23:52 -4.9 °C -6.1 °C 1028.3 hPa Calm   3.2 km/h 91 % 0.0 mm
23:57 -4.7 °C -5.7 °C 1028.3 hPa Calm   3.2 km/h 93 % 0.0 mm
Meteo18
Compliments of Weather Underground - 4 mb

Script developed by  Jim McMurry - jmcmurry@mwt.net Adapted for the template by  Wim van der Kuil - Leuven-Template.eu

You find our weather info also at:

European Weather Network

Weather Underground

Equipment we use:

Weather-station
Davis Vue

Weather-program
Meteohub

Weather-server
Raspberry PI 2 B+

Provider
1 and 1

Davis Vue

Meteohub

Raspberry PI 2 B+

1 and 1